Time;durP1;ratioP1;P1;durP2;ratioP2;P2;SDS_P1;SDS_P2;PMS_P1;PMS_P2;Temp;Humidity;BMP_temperature;BMP_pressure;BME280_temperature;BME280_humidity;BME280_pressure;Samples;Min_cycle;Max_cycle;Signal;HPM_P1;HPM_P2
2021/06/02 00:00:30;;;;;;;240.72;46.10;;;;;;;11.63;100.00;99395.56;1714889;83;21224;-81
2021/06/02 00:03:38;;;;;;;134.55;45.40;;;;;;;11.63;100.00;99399.67;1703823;84;21191;-81
2021/06/02 00:06:44;;;;;;;203.75;39.88;;;;;;;11.64;100.00;99406.30;1714112;83;21323;-81
2021/06/02 00:09:50;;;;;;;278.58;36.70;;;;;;;11.68;100.00;99402.63;1705510;84;21392;-81
2021/06/02 00:12:57;;;;;;;167.07;36.80;;;;;;;11.71;100.00;99393.45;1712581;83;21244;-80
2021/06/02 00:16:02;;;;;;;221.47;35.40;;;;;;;11.75;100.00;99387.89;1703893;84;21281;-81
2021/06/02 00:19:07;;;;;;;206.93;37.05;;;;;;;11.78;100.00;99393.50;1712859;83;21850;-81
2021/06/02 00:22:15;;;;;;;195.92;41.37;;;;;;;11.81;100.00;99389.48;1703857;84;21758;-81
2021/06/02 00:25:21;;;;;;;209.20;40.45;;;;;;;11.82;100.00;99379.73;1714319;83;21339;-81
2021/06/02 00:28:26;;;;;;;161.80;38.08;;;;;;;11.82;100.00;99374.26;1703935;84;21269;-81
2021/06/02 00:31:32;;;;;;;219.10;47.00;;;;;;;11.84;100.00;99365.81;1713811;83;21327;-81
2021/06/02 00:34:38;;;;;;;169.32;36.83;;;;;;;11.84;100.00;99361.18;1703936;84;21871;-81
2021/06/02 00:37:42;;;;;;;129.55;37.50;;;;;;;11.86;100.00;99363.73;1713843;83;21196;-81
2021/06/02 00:40:53;;;;;;;227.13;72.60;;;;;;;11.89;100.00;99365.51;1705171;84;21241;-81
2021/06/02 00:43:58;;;;;;;162.10;46.00;;;;;;;11.88;100.00;99358.34;1715036;83;21874;-81
2021/06/02 00:47:07;;;;;;;181.82;46.42;;;;;;;11.87;100.00;99342.97;1703897;83;21257;-81
2021/06/02 00:50:14;;;;;;;234.75;48.48;;;;;;;11.89;100.00;99355.92;1714839;83;21342;-81
2021/06/02 00:53:21;;;;;;;542.63;123.82;;;;;;;11.89;100.00;99357.82;1683407;84;21333;-81
2021/06/02 00:56:27;;;;;;;703.73;117.50;;;;;;;11.86;100.00;99350.88;1713973;83;21315;-81
2021/06/02 00:59:39;;;;;;;405.33;136.22;;;;;;;11.86;100.00;99352.24;1705120;84;21746;-81
2021/06/02 01:02:46;;;;;;;661.85;90.12;;;;;;;11.87;100.00;99362.67;1713302;83;21244;-81
2021/06/02 01:05:51;;;;;;;179.45;53.63;;;;;;;11.85;100.00;99371.08;1704012;84;21855;-81
2021/06/02 01:08:56;;;;;;;279.90;50.60;;;;;;;11.85;100.00;99371.08;1713876;83;21196;-81
2021/06/02 01:12:03;;;;;;;238.90;68.17;;;;;;;11.86;100.00;99367.31;1705400;84;21880;-81
2021/06/02 01:15:09;;;;;;;244.32;57.73;;;;;;;11.87;100.00;99375.84;1712431;83;21229;-81
2021/06/02 01:18:17;;;;;;;171.05;55.45;;;;;;;11.90;100.00;99385.53;1705129;84;21325;-81
2021/06/02 01:21:28;;;;;;;238.40;53.58;;;;;;;11.92;100.00;99378.81;1712295;83;21212;-80
2021/06/02 01:24:35;;;;;;;219.68;46.95;;;;;;;11.94;100.00;99371.20;1704125;84;21219;-80
2021/06/02 01:27:41;;;;;;;565.67;82.62;;;;;;;11.99;100.00;99377.44;1713961;83;21220;-80
2021/06/02 01:30:47;;;;;;;1354.63;210.13;;;;;;;12.00;100.00;99375.87;1705104;84;21218;-80
2021/06/02 01:34:03;;;;;;;381.05;70.25;;;;;;;12.02;100.00;99368.81;1712774;83;21354;-81
2021/06/02 01:37:47;;;;;;;938.87;187.53;;;;;;;12.01;100.00;99366.59;1694100;82;21317;-80
2021/06/02 01:41:44;;;;;;;1974.30;321.52;;;;;;;12.03;100.00;99361.73;1669256;85;21280;-81
2021/06/02 01:45:20;;;;;;;361.32;93.60;;;;;;;12.02;100.00;99363.33;1710363;84;22723;-81
2021/06/02 01:48:43;;;;;;;234.10;53.17;;;;;;;12.02;100.00;99367.44;1695135;84;21500;-80
2021/06/02 01:52:10;;;;;;;147.70;45.85;;;;;;;12.07;100.00;99367.66;1681665;85;21236;-80
2021/06/02 01:55:47;;;;;;;168.47;42.73;;;;;;;12.11;100.00;99372.20;1692495;85;21601;-81
2021/06/02 01:59:20;;;;;;;296.65;66.53;;;;;;;12.14;100.00;99366.28;1682811;85;21192;-81
2021/06/02 02:03:08;;;;;;;259.18;58.55;;;;;;;12.16;100.00;99361.45;1691107;85;21192;-82
2021/06/02 02:06:35;;;;;;;913.33;158.12;;;;;;;12.19;100.00;99361.88;1683099;85;21318;-81
2021/06/02 02:10:14;;;;;;;313.10;73.50;;;;;;;12.18;100.00;99349.73;1663867;85;21378;-81
2021/06/02 02:13:42;;;;;;;661.75;149.05;;;;;;;12.17;100.00;99348.05;1682590;85;21379;-81
2021/06/02 02:17:25;;;;;;;226.98;48.95;;;;;;;12.17;100.00;99359.02;1692776;85;21211;-81
2021/06/02 02:20:47;;;;;;;222.15;50.35;;;;;;;12.17;100.00;99343.41;1682188;85;21505;-81
2021/06/02 02:24:21;;;;;;;267.00;79.25;;;;;;;12.22;100.00;99348.27;1691644;85;21354;-81
2021/06/02 02:27:48;;;;;;;235.30;63.73;;;;;;;12.24;100.00;99348.91;1679293;85;21227;-81
2021/06/02 02:31:32;;;;;;;764.13;150.47;;;;;;;12.26;100.00;99352.28;1692963;85;21330;-81
2021/06/02 02:34:43;;;;;;;450.27;82.10;;;;;;;12.27;100.00;99360.28;1681720;85;21642;-79
2021/06/02 02:38:10;;;;;;;196.72;45.48;;;;;;;12.30;100.00;99349.44;1700753;83;21245;-81
2021/06/02 02:41:36;;;;;;;192.62;43.13;;;;;;;12.33;100.00;99336.69;1705233;84;21322;-81
2021/06/02 02:44:58;;;;;;;268.35;61.58;;;;;;;12.35;100.00;99337.83;1704326;84;21232;-81
2021/06/02 02:48:28;;;;;;;219.70;50.23;;;;;;;12.40;100.00;99336.66;1694208;83;21319;-81
2021/06/02 02:51:52;;;;;;;127.75;38.10;;;;;;;12.41;100.00;99335.61;1704048;84;22765;-81
2021/06/02 02:55:13;;;;;;;648.73;89.42;;;;;;;12.45;100.00;99345.94;1712880;83;21350;-81
2021/06/02 02:58:42;;;;;;;228.65;45.70;;;;;;;12.46;100.00;99344.04;1704083;84;21832;-81
2021/06/02 03:02:11;;;;;;;317.27;49.85;;;;;;;12.47;100.00;99340.27;1712764;83;21232;-81
2021/06/02 03:05:21;;;;;;;209.37;54.13;;;;;;;12.48;100.00;99342.78;1704100;84;21387;-81
2021/06/02 03:08:45;;;;;;;234.43;63.80;;;;;;;12.49;100.00;99334.86;1713909;83;21834;-82
2021/06/02 03:12:01;;;;;;;237.90;48.87;;;;;;;12.50;100.00;99338.45;1698212;84;21321;-81
2021/06/02 03:15:28;;;;;;;260.57;59.27;;;;;;;12.49;100.00;99332.13;1740698;82;21247;-81
2021/06/02 03:18:54;;;;;;;190.10;61.42;;;;;;;12.51;100.00;99327.28;1734640;82;21327;-81
2021/06/02 03:22:22;;;;;;;273.20;72.05;;;;;;;12.52;100.00;99338.56;1712477;83;21885;-81
2021/06/02 03:25:38;;;;;;;522.65;110.55;;;;;;;12.54;100.00;99332.86;1714780;82;21327;-81
2021/06/02 03:29:19;;;;;;;292.65;76.92;;;;;;;12.54;100.00;99332.33;1734878;82;21316;-81
2021/06/02 03:32:57;;;;;;;301.48;56.40;;;;;;;12.56;100.00;99327.15;1733343;82;21910;-81
2021/06/02 03:36:09;;;;;;;357.35;98.00;;;;;;;12.57;100.00;99326.95;1734004;82;21354;-81
2021/06/02 03:39:51;;;;;;;642.00;192.53;;;;;;;12.60;100.00;99333.37;1701515;84;21297;-81
2021/06/02 03:43:35;;;;;;;258.63;67.03;;;;;;;12.59;100.00;99313.02;1713917;83;21296;-81
2021/06/02 03:46:53;;;;;;;325.20;73.45;;;;;;;12.59;100.00;99314.39;1700698;82;21304;-81
2021/06/02 03:50:28;;;;;;;350.18;79.22;;;;;;;12.59;100.00;99328.95;1734581;82;21328;-81
2021/06/02 03:54:17;;;;;;;352.90;81.37;;;;;;;12.61;100.00;99326.84;1734473;82;21854;-81
2021/06/02 03:57:49;;;;;;;339.03;59.03;;;;;;;12.64;100.00;99346.14;1734872;82;21169;-81
2021/06/02 04:01:23;;;;;;;305.20;73.12;;;;;;;12.65;100.00;99346.45;1734540;82;21181;-81
2021/06/02 04:05:04;;;;;;;244.80;59.23;;;;;;;12.67;100.00;99354.80;1733086;81;21392;-81
2021/06/02 04:08:48;;;;;;;257.37;49.30;;;;;;;12.68;100.00;99350.15;1720676;82;21176;-81
2021/06/02 04:12:07;;;;;;;208.45;59.93;;;;;;;12.69;100.00;99350.45;1735117;82;21926;-81
2021/06/02 04:15:14;;;;;;;440.05;96.95;;;;;;;12.70;100.00;99357.12;1734364;82;21224;-81
2021/06/02 04:18:24;;;;;;;445.42;110.28;;;;;;;12.70;100.00;99359.86;1762822;81;21177;-81
2021/06/02 04:21:29;;;;;;;247.80;62.60;;;;;;;12.68;100.00;99356.47;1751817;82;21331;-81
2021/06/02 04:24:38;;;;;;;263.07;58.52;;;;;;;12.67;100.00;99360.81;1751780;82;21358;-81
2021/06/02 04:27:43;;;;;;;259.98;66.10;;;;;;;12.66;100.00;99350.37;1719134;83;21798;-81
2021/06/02 04:30:52;;;;;;;242.85;52.60;;;;;;;12.70;100.00;99346.65;1667025;84;21336;-81
2021/06/02 04:34:03;;;;;;;286.80;66.07;;;;;;;12.74;100.00;99350.66;1713733;83;21205;-81
2021/06/02 04:37:09;;;;;;;697.83;182.90;;;;;;;12.77;100.00;99374.41;1721374;82;21330;-81
2021/06/02 04:40:16;;;;;;;210.08;57.90;;;;;;;12.76;100.00;99371.34;1725035;82;21807;-81
2021/06/02 04:43:22;;;;;;;356.32;80.57;;;;;;;12.78;100.00;99369.75;1726512;82;21320;-81
2021/06/02 04:46:27;;;;;;;318.65;75.78;;;;;;;12.79;100.00;99368.69;1748393;82;21287;-81
2021/06/02 04:50:02;;;;;;;488.72;126.82;;;;;;;12.82;100.00;99371.55;1742790;82;22543;-81
2021/06/02 04:53:31;;;;;;;359.92;82.70;;;;;;;12.83;100.00;99369.95;1811476;79;21224;-81
2021/06/02 04:56:48;;;;;;;289.10;57.35;;;;;;;12.86;100.00;99368.16;1791811;79;21184;-81
2021/06/02 05:00:34;;;;;;;362.52;72.20;;;;;;;12.93;100.00;99367.61;1798854;79;21239;-81
2021/06/02 05:04:07;;;;;;;224.32;63.87;;;;;;;12.99;100.00;99376.37;1797089;79;21739;-80
2021/06/02 05:07:34;;;;;;;228.05;62.65;;;;;;;13.04;100.00;99372.45;1805699;79;21350;-81
2021/06/02 05:11:07;;;;;;;277.13;58.83;;;;;;;13.09;100.00;99373.72;1759643;81;21293;-81
2021/06/02 05:14:54;;;;;;;830.40;192.47;;;;;;;13.17;100.00;99374.30;1790559;79;21318;-80
2021/06/02 05:18:39;;;;;;;192.60;69.75;;;;;;;13.28;100.00;99368.72;1777066;79;21220;-81
2021/06/02 05:22:05;;;;;;;383.55;89.47;;;;;;;13.40;100.00;99373.83;1798391;79;21689;-81
2021/06/02 05:25:42;;;;;;;293.35;58.55;;;;;;;13.45;100.00;99386.38;1795958;79;21343;-81
2021/06/02 05:29:19;;;;;;;295.73;61.28;;;;;;;13.51;100.00;99384.16;1792179;79;21234;-81
2021/06/02 05:32:53;;;;;;;299.65;60.98;;;;;;;13.61;100.00;99387.81;1790018;79;21809;-81
2021/06/02 05:36:40;;;;;;;378.05;76.62;;;;;;;13.70;100.00;99378.80;1793801;79;21326;-81
2021/06/02 05:40:19;;;;;;;269.43;64.45;;;;;;;13.74;100.00;99378.14;1782736;79;21232;-81
2021/06/02 05:44:08;;;;;;;285.47;64.73;;;;;;;13.77;100.00;99377.68;1765922;80;21266;-82
2021/06/02 05:47:58;;;;;;;1337.03;307.07;;;;;;;13.79;100.00;99379.70;1765971;79;21200;-81
2021/06/02 05:51:52;;;;;;;486.00;127.82;;;;;;;13.81;100.00;99379.47;1663836;80;21577;-81
2021/06/02 05:55:34;;;;;;;439.82;117.10;;;;;;;13.76;100.00;99380.66;1766606;79;21289;-81
2021/06/02 05:59:08;;;;;;;264.52;60.15;;;;;;;13.67;100.00;99364.11;1741643;80;21305;-81
2021/06/02 06:02:55;;;;;;;545.42;96.10;;;;;;;13.71;100.00;99357.12;1761230;79;21295;-80
2021/06/02 06:06:29;;;;;;;164.05;39.40;;;;;;;13.82;100.00;99368.77;1767068;79;21338;-80
2021/06/02 06:10:17;;;;;;;408.95;69.62;;;;;;;13.90;100.00;99372.65;1742337;80;21310;-80
2021/06/02 06:14:03;;;;;;;241.80;55.35;;;;;;;14.00;100.00;99388.12;1737809;80;21267;-81
2021/06/02 06:17:38;;;;;;;289.68;62.73;;;;;;;14.00;100.00;99386.75;1767700;79;21215;-81
2021/06/02 06:21:29;;;;;;;278.52;63.33;;;;;;;14.00;100.00;99390.87;1767714;79;21286;-81
2021/06/02 06:24:49;;;;;;;302.62;76.67;;;;;;;13.97;100.00;99400.95;1763717;80;21295;-80
2021/06/02 06:28:06;;;;;;;1317.60;193.85;;;;;;;13.89;100.00;99397.62;1764277;79;21267;-80
2021/06/02 06:31:16;;;;;;;304.43;83.80;;;;;;;13.85;100.00;99397.20;1762812;79;21830;-81
2021/06/02 06:34:33;;;;;;;323.13;81.35;;;;;;;13.76;100.00;99399.36;1760204;79;21294;-81
2021/06/02 06:37:49;;;;;;;359.07;113.60;;;;;;;13.71;100.00;99396.96;1760768;80;21707;-80
2021/06/02 06:41:01;;;;;;;292.85;62.23;;;;;;;13.66;100.00;99407.23;1767572;80;21211;-80
2021/06/02 06:44:08;;;;;;;391.10;79.45;;;;;;;13.64;100.00;99393.39;1773230;80;21317;-80
2021/06/02 06:47:14;;;;;;;238.00;53.55;;;;;;;13.63;100.00;99404.91;1771868;79;21669;-79
2021/06/02 06:50:20;;;;;;;239.15;51.18;;;;;;;13.67;100.00;99403.42;1769163;79;21344;-79
2021/06/02 06:53:30;;;;;;;282.25;77.22;;;;;;;13.65;100.00;99401.97;1773030;80;21799;-80
2021/06/02 06:56:42;;;;;;;250.70;71.60;;;;;;;13.66;100.00;99403.65;1768898;80;21936;-80
2021/06/02 06:59:48;;;;;;;237.63;65.42;;;;;;;13.63;100.00;99406.82;1743559;79;21284;-80
2021/06/02 07:02:54;;;;;;;278.12;67.87;;;;;;;13.62;100.00;99414.76;1770335;79;21206;-81
2021/06/02 07:05:59;;;;;;;255.80;57.80;;;;;;;13.63;100.00;99416.44;1776918;79;21802;-80
2021/06/02 07:09:05;;;;;;;347.12;69.58;;;;;;;13.68;100.00;99430.36;1774069;79;21322;-80
2021/06/02 07:12:19;;;;;;;156.15;45.20;;;;;;;13.73;100.00;99418.19;1773768;79;21289;-81
2021/06/02 07:15:24;;;;;;;198.07;43.10;;;;;;;13.74;100.00;99429.52;1751906;79;21306;-80
2021/06/02 07:18:32;;;;;;;302.20;57.10;;;;;;;13.75;100.00;99423.80;1770834;79;21366;-80
2021/06/02 07:21:38;;;;;;;319.07;57.35;;;;;;;13.76;100.00;99421.34;1770380;79;21282;-81
2021/06/02 07:24:37;;;;;;;1912.40;300.65;;;;;;;13.75;100.00;99424.33;1773572;79;21365;-80
2021/06/02 07:27:43;;;;;;;297.25;62.60;;;;;;;13.73;100.00;99431.39;1766804;79;21204;-80
2021/06/02 07:30:51;;;;;;;225.80;74.55;;;;;;;13.69;100.00;99419.68;1770976;79;21349;-81
2021/06/02 07:33:57;;;;;;;254.60;55.30;;;;;;;13.69;100.00;99415.05;1773305;79;21342;-80
2021/06/02 07:37:07;;;;;;;205.05;51.53;;;;;;;13.69;100.00;99421.05;1774098;79;21173;-79
2021/06/02 07:40:13;;;;;;;834.62;129.15;;;;;;;13.70;100.00;99417.27;1773678;79;21890;-78
2021/06/02 07:43:18;;;;;;;246.07;63.85;;;;;;;13.71;100.00;99418.95;1793754;78;21290;-79
2021/06/02 07:46:23;;;;;;;241.90;59.67;;;;;;;13.72;100.00;99417.34;1791703;78;21152;-79
2021/06/02 07:49:28;;;;;;;282.35;70.00;;;;;;;13.71;100.00;99419.79;1798303;78;21354;-79
2021/06/02 07:52:35;;;;;;;276.70;56.90;;;;;;;13.70;100.00;99415.89;1793107;78;21823;-79
2021/06/02 07:55:41;;;;;;;265.95;43.45;;;;;;;13.71;100.00;99424.45;1801232;78;21735;-79
2021/06/02 07:58:47;;;;;;;270.10;54.77;;;;;;;13.70;100.00;99420.02;1757658;81;21165;-78
2021/06/02 08:01:54;;;;;;;324.10;78.70;;;;;;;13.68;100.00;99422.96;1733367;80;21161;-79
2021/06/02 08:05:00;;;;;;;214.97;50.23;;;;;;;13.71;100.00;99429.94;1735327;80;21330;-79
2021/06/02 08:08:09;;;;;;;243.12;59.83;;;;;;;13.74;100.00;99439.14;1731015;80;22085;-79
2021/06/02 08:11:15;;;;;;;192.30;47.80;;;;;;;13.74;100.00;99439.98;1730729;82;21173;-80
2021/06/02 08:14:20;;;;;;;254.82;57.45;;;;;;;13.75;100.00;99444.94;1728809;81;21340;-79
2021/06/02 08:17:25;;;;;;;273.68;58.05;;;;;;;13.75;100.00;99436.69;1730357;81;21359;-79
2021/06/02 08:20:33;;;;;;;248.50;54.88;;;;;;;13.75;100.00;99442.19;1730850;81;22557;-78
2021/06/02 08:23:38;;;;;;;249.92;55.52;;;;;;;13.77;100.00;99440.05;1730893;81;21190;-78
2021/06/02 08:26:46;;;;;;;367.62;77.78;;;;;;;13.81;100.00;99433.06;1729227;81;21850;-81
2021/06/02 08:29:53;;;;;;;110.72;29.98;;;;;;;13.86;100.00;99441.49;1730697;81;21705;-77
2021/06/02 08:32:59;;;;;;;196.20;39.58;;;;;;;13.88;100.00;99444.88;1731587;81;21307;-79
2021/06/02 08:36:05;;;;;;;361.10;60.60;;;;;;;13.88;100.00;99446.77;1726849;82;21307;-79
2021/06/02 08:39:13;;;;;;;202.50;60.70;;;;;;;13.90;100.00;99458.40;1727439;81;21248;-79
2021/06/02 08:42:19;;;;;;;224.77;44.58;;;;;;;13.86;100.00;99452.48;1727912;81;21225;-79
2021/06/02 08:45:26;;;;;;;240.40;57.17;;;;;;;13.84;100.00;99457.38;1721988;80;21302;-77
2021/06/02 08:48:33;;;;;;;187.00;44.75;;;;;;;13.85;100.00;99456.84;1735593;82;21351;-78
2021/06/02 08:51:43;;;;;;;217.15;41.00;;;;;;;13.86;100.00;99450.27;1724016;82;21313;-78
2021/06/02 08:55:05;;;;;;;323.90;44.67;;;;;;;13.90;100.00;99455.11;1701053;81;21229;-78
2021/06/02 08:58:11;;;;;;;126.40;30.85;;;;;;;13.96;100.00;99450.64;1723756;82;21224;-79
2021/06/02 09:01:17;;;;;;;137.65;31.50;;;;;;;14.01;100.00;99452.20;1722515;82;21291;-79
2021/06/02 09:04:22;;;;;;;119.33;31.60;;;;;;;14.06;100.00;99454.59;1679056;82;21288;-79
2021/06/02 09:07:30;;;;;;;146.53;37.23;;;;;;;14.13;100.00;99453.20;1681516;82;21153;-78
2021/06/02 09:10:39;;;;;;;166.75;34.03;;;;;;;14.16;100.00;99463.77;1730551;82;21362;-79
2021/06/02 09:13:45;;;;;;;181.37;41.83;;;;;;;14.16;100.00;99463.77;1710906;82;21275;-80
2021/06/02 09:17:03;;;;;;;161.82;31.10;;;;;;;14.19;100.00;99466.59;1722336;82;21284;-80
2021/06/02 09:20:14;;;;;;;213.82;42.65;;;;;;;14.22;100.00;99468.92;1720326;82;21271;-78
2021/06/02 09:23:46;;;;;;;234.55;39.18;;;;;;;14.23;100.00;99470.59;1730163;82;21832;-80
2021/06/02 09:26:53;;;;;;;208.65;40.17;;;;;;;14.19;100.00;99467.97;1726611;82;21292;-79
2021/06/02 09:30:03;;;;;;;1095.80;113.37;;;;;;;14.18;100.00;99477.30;1718928;81;21285;-78
2021/06/02 09:33:11;;;;;;;187.15;32.40;;;;;;;14.16;100.00;99479.41;1748811;80;21157;-78
2021/06/02 09:36:19;;;;;;;359.23;46.83;;;;;;;14.14;100.00;99483.76;1724703;82;21276;-79
2021/06/02 09:39:29;;;;;;;227.47;49.35;;;;;;;14.13;100.00;99489.48;1700651;82;21290;-78
2021/06/02 09:42:36;;;;;;;248.25;57.73;;;;;;;14.10;100.00;99502.29;1734941;82;21851;-83
2021/06/02 09:46:16;;;;;;;241.45;57.53;;;;;;;14.05;100.00;99501.03;1736728;82;21291;-79
2021/06/02 09:49:22;;;;;;;256.25;49.18;;;;;;;14.08;100.00;99497.55;1728074;82;22282;-77
2021/06/02 09:52:51;;;;;;;212.53;48.45;;;;;;;14.10;100.00;99494.04;1696097;81;21223;-80
2021/06/02 09:55:56;;;;;;;413.45;69.40;;;;;;;14.11;100.00;99494.34;1729110;82;21204;-78
2021/06/02 09:59:06;;;;;;;153.25;40.95;;;;;;;14.12;100.00;99500.19;1678442;82;21929;-78
2021/06/02 10:02:12;;;;;;;313.07;49.65;;;;;;;14.14;100.00;99498.05;1735416;82;21302;-78
2021/06/02 10:05:20;;;;;;;143.32;36.00;;;;;;;14.14;100.00;99510.42;1731001;82;21672;-79
2021/06/02 10:08:42;;;;;;;229.40;46.73;;;;;;;14.16;100.00;99507.78;1730237;82;21314;-79
2021/06/02 10:12:11;;;;;;;227.10;44.50;;;;;;;14.20;100.00;99512.28;1732423;82;21156;-79
2021/06/02 10:15:18;;;;;;;155.72;33.85;;;;;;;14.19;100.00;99517.48;1708328;82;21321;-80
2021/06/02 10:18:39;;;;;;;217.03;59.50;;;;;;;14.17;100.00;99510.83;1709122;82;21279;-80
2021/06/02 10:21:57;;;;;;;191.30;44.90;;;;;;;14.19;100.00;99520.23;1733209;82;21157;-79
2021/06/02 10:25:07;;;;;;;183.10;34.18;;;;;;;14.14;100.00;99524.17;1733706;82;21267;-80
2021/06/02 10:28:16;;;;;;;211.32;40.10;;;;;;;14.11;100.00;99532.31;1732626;82;21288;-80
2021/06/02 10:31:21;;;;;;;195.15;41.33;;;;;;;14.13;100.00;99526.61;1732027;82;22389;-79
2021/06/02 10:34:26;;;;;;;275.93;40.50;;;;;;;14.13;100.00;99529.36;1733700;82;21314;-79
2021/06/02 10:37:33;;;;;;;169.55;47.13;;;;;;;14.16;100.00;99529.78;1729677;82;21291;-81
2021/06/02 10:40:40;;;;;;;277.05;47.80;;;;;;;14.12;100.00;99537.30;1727786;82;21333;-79
2021/06/02 10:43:52;;;;;;;216.78;40.05;;;;;;;14.09;100.00;99536.36;1682672;82;21862;-78
2021/06/02 10:46:58;;;;;;;208.72;39.13;;;;;;;14.09;100.00;99544.61;1680735;81;61808;-81
2021/06/02 10:50:04;;;;;;;171.75;36.75;;;;;;;14.11;100.00;99541.09;1662642;83;21721;-80
2021/06/02 10:53:30;;;;;;;213.15;46.60;;;;;;;14.16;100.00;99539.91;1641527;85;21177;-82
2021/06/02 10:56:35;;;;;;;234.20;47.75;;;;;;;14.21;100.00;99534.59;1647014;86;21303;-82
2021/06/02 10:59:43;;;;;;;224.62;46.92;;;;;;;14.21;100.00;99544.22;1604679;88;21207;-81
2021/06/02 11:02:49;;;;;;;227.10;43.60;;;;;;;14.19;100.00;99550.48;1610267;87;21963;-82
2021/06/02 11:05:54;;;;;;;156.97;35.25;;;;;;;14.22;100.00;99556.93;1604489;87;21322;-81
2021/06/02 11:09:05;;;;;;;186.28;39.60;;;;;;;14.25;100.00;99550.97;1594918;87;21216;-81
2021/06/02 11:12:11;;;;;;;180.75;36.85;;;;;;;14.23;100.00;99557.23;1610287;87;21686;-81
2021/06/02 11:15:29;;;;;;;201.07;39.95;;;;;;;14.22;100.00;99552.27;1605731;87;21326;-82
2021/06/02 11:18:39;;;;;;;241.23;40.35;;;;;;;14.21;100.00;99552.47;1581355;87;21227;-82
2021/06/02 11:22:03;;;;;;;211.32;49.50;;;;;;;14.21;100.00;99552.47;1607298;87;21193;-81
2021/06/02 11:25:10;;;;;;;203.70;46.83;;;;;;;14.20;100.00;99558.50;1599898;87;21223;-82
2021/06/02 11:28:16;;;;;;;218.55;48.60;;;;;;;14.18;100.00;99550.17;1581147;89;21207;-80
2021/06/02 11:31:31;;;;;;;194.40;40.17;;;;;;;14.17;100.00;99550.71;1602988;89;21248;-87
2021/06/02 11:34:38;;;;;;;233.02;45.65;;;;;;;14.17;100.00;99553.46;1606470;89;21341;-86
2021/06/02 11:37:43;;;;;;;204.10;45.83;;;;;;;14.23;100.00;99559.45;1600863;89;21717;-85
2021/06/02 11:40:49;;;;;;;235.93;47.27;;;;;;;14.27;100.00;99561.25;1603375;87;21896;-85
2021/06/02 11:43:54;;;;;;;316.05;47.78;;;;;;;14.27;100.00;99548.87;1579434;89;21213;-85
2021/06/02 11:47:00;;;;;;;167.77;40.80;;;;;;;14.28;100.00;99550.55;1601939;87;21375;-80
2021/06/02 11:50:21;;;;;;;247.75;38.53;;;;;;;14.29;100.00;99549.48;1637251;86;21291;-87
2021/06/02 11:53:26;;;;;;;241.08;38.60;;;;;;;14.31;100.00;99552.34;1674616;84;21161;-87
2021/06/02 11:56:32;;;;;;;279.90;40.95;;;;;;;14.32;100.00;99552.64;1673465;84;21312;-87
2021/06/02 11:59:40;;;;;;;117.65;32.20;;;;;;;14.33;100.00;99552.11;1682112;84;21650;-86
2021/06/02 12:02:46;;;;;;;238.22;39.08;;;;;;;14.36;100.00;99551.68;1629453;85;21191;-80
2021/06/02 12:05:53;;;;;;;181.15;36.08;;;;;;;14.39;100.00;99555.88;1671188;84;21297;-81
2021/06/02 12:09:02;;;;;;;233.50;39.38;;;;;;;14.39;100.00;99558.10;1666095;84;21121;-84
2021/06/02 12:12:09;;;;;;;231.17;41.92;;;;;;;14.39;100.00;99558.63;1675469;84;21291;-87
2021/06/02 12:15:16;;;;;;;141.25;32.50;;;;;;;14.37;100.00;99560.23;1680821;84;21294;-87
2021/06/02 12:18:48;;;;;;;224.00;34.73;;;;;;;14.36;100.00;99558.56;1678337;83;21341;-83
2021/06/02 12:21:54;;;;;;;185.28;38.70;;;;;;;14.38;100.00;99568.80;1684895;84;21181;-86
2021/06/02 12:25:23;;;;;;;170.53;36.33;;;;;;;14.39;100.00;99563.60;1679064;84;21224;-79
2021/06/02 12:28:30;;;;;;;200.55;34.63;;;;;;;14.39;100.00;99558.63;1670014;84;21283;-86
2021/06/02 12:31:53;;;;;;;200.68;38.90;;;;;;;14.38;100.00;99561.92;1680432;83;21800;-85
2021/06/02 12:34:59;;;;;;;217.90;46.85;;;;;;;14.38;100.00;99574.84;1634221;86;21219;-80
2021/06/02 12:38:31;;;;;;;161.60;43.78;;;;;;;14.32;100.00;99573.81;1655106;84;21336;-85
2021/06/02 12:41:36;;;;;;;143.68;32.65;;;;;;;14.28;100.00;99573.93;1678952;84;21184;-85
2021/06/02 12:44:47;;;;;;;177.72;45.00;;;;;;;14.26;100.00;99577.44;1682039;84;21769;-85
2021/06/02 12:47:53;;;;;;;209.25;33.60;;;;;;;14.22;100.00;99578.41;1682249;84;21299;-79
2021/06/02 12:50:59;;;;;;;139.32;31.97;;;;;;;14.22;100.00;99584.44;1630214;87;21361;-86
2021/06/02 12:54:05;;;;;;;183.05;36.10;;;;;;;14.22;100.00;99583.06;1616342;87;21224;-79
2021/06/02 12:57:10;;;;;;;160.10;36.48;;;;;;;14.20;100.00;99584.63;1629328;87;21830;-79
2021/06/02 13:00:20;;;;;;;302.80;40.73;;;;;;;14.19;100.00;99580.73;1612185;88;21368;-79
2021/06/02 13:03:30;;;;;;;186.95;45.17;;;;;;;14.16;100.00;99579.78;1684115;84;22234;-80
2021/06/02 13:06:36;;;;;;;298.45;47.88;;;;;;;14.13;100.00;99587.11;1691512;84;21267;-87
2021/06/02 13:09:45;;;;;;;172.53;39.53;;;;;;;14.12;100.00;99584.05;1639706;87;21837;-81
2021/06/02 13:13:00;;;;;;;173.62;34.50;;;;;;;14.10;100.00;99580.66;1624900;87;21199;-81
2021/06/02 13:16:06;;;;;;;235.17;41.05;;;;;;;14.11;100.00;99580.44;1600807;87;21265;-79
2021/06/02 13:19:14;;;;;;;176.53;33.23;;;;;;;14.12;100.00;99581.30;1635931;87;21804;-86
2021/06/02 13:22:28;;;;;;;163.75;42.62;;;;;;;14.10;100.00;99577.38;1619099;87;21319;-85
2021/06/02 13:25:37;;;;;;;331.77;69.15;;;;;;;14.05;100.00;99582.16;1656105;85;21302;-86
2021/06/02 13:28:45;;;;;;;234.40;44.63;;;;;;;14.04;100.00;99581.00;1662308;85;21347;-79
2021/06/02 13:31:59;;;;;;;247.88;49.73;;;;;;;14.00;100.00;99579.21;1640817;85;21346;-85
2021/06/02 13:35:23;;;;;;;195.30;38.28;;;;;;;14.00;100.00;99585.24;1639782;87;21232;-80
2021/06/02 13:38:35;;;;;;;285.00;44.63;;;;;;;14.00;100.00;99587.98;1632228;87;21367;-79
2021/06/02 13:41:39;;;;;;;261.40;36.93;;;;;;;14.00;100.00;99592.11;1611641;87;21871;-80
2021/06/02 13:44:44;;;;;;;204.03;37.83;;;;;;;13.99;100.00;99591.28;1694588;84;21350;-87
2021/06/02 13:47:50;;;;;;;472.57;89.92;;;;;;;13.98;100.00;99596.47;1652318;86;21323;-80
2021/06/02 13:50:56;;;;;;;198.55;37.23;;;;;;;13.97;100.00;99593.41;1612332;88;22340;-80
2021/06/02 13:54:14;;;;;;;197.13;42.98;;;;;;;13.97;100.00;99602.16;1608510;89;21323;-81
2021/06/02 13:57:20;;;;;;;344.75;56.75;;;;;;;13.97;100.00;99600.28;1634505;86;21410;-79
2021/06/02 14:00:27;;;;;;;144.45;36.93;;;;;;;13.96;100.00;99594.45;1618661;88;22154;-79
2021/06/02 14:03:33;;;;;;;204.90;36.42;;;;;;;13.92;100.00;99598.68;1634415;88;21368;-79
2021/06/02 14:06:40;;;;;;;230.00;43.95;;;;;;;13.91;100.00;99594.78;1635319;87;21399;-87
2021/06/02 14:09:47;;;;;;;164.07;45.25;;;;;;;13.89;100.00;99604.63;1634913;87;21217;-79
2021/06/02 14:12:58;;;;;;;219.30;44.08;;;;;;;13.87;100.00;99595.73;1634790;88;21201;-86
2021/06/02 14:16:04;;;;;;;304.13;52.50;;;;;;;13.86;100.00;99595.96;1635563;88;21330;-80
2021/06/02 14:19:10;;;;;;;137.03;34.00;;;;;;;13.85;100.00;99595.66;1635986;88;21315;-80
2021/06/02 14:22:16;;;;;;;194.15;44.20;;;;;;;13.83;100.00;99604.09;1635109;87;21215;-86
2021/06/02 14:25:22;;;;;;;235.40;37.50;;;;;;;13.85;100.00;99596.49;1635234;88;21244;-87
2021/06/02 14:28:28;;;;;;;423.28;75.15;;;;;;;13.84;100.00;99597.56;1636394;88;21833;-80
2021/06/02 14:31:34;;;;;;;329.02;48.33;;;;;;;13.80;100.00;99593.02;1636243;88;21316;-80
2021/06/02 14:34:41;;;;;;;260.13;41.48;;;;;;;13.77;100.00;99604.42;1635165;88;21355;-80
2021/06/02 14:37:48;;;;;;;210.08;36.88;;;;;;;13.76;100.00;99599.16;1636493;88;21198;-84